createdAt,value
2022-09-25T00:02:35.814Z,100559.88
2022-09-25T00:05:19.592Z,100561.88
2022-09-25T00:08:04.141Z,100540.69
2022-09-25T00:10:50.600Z,100568.06
2022-09-25T00:13:34.802Z,100505.69
2022-09-25T00:16:23.136Z,100504.13
2022-09-25T00:19:24.403Z,100542.31
2022-09-25T00:22:08.198Z,100549.72
2022-09-25T00:24:52.519Z,100506.63
2022-09-25T00:27:36.399Z,100538.97
2022-09-25T00:30:20.401Z,100529.72
2022-09-25T00:33:05.591Z,100541.72
2022-09-25T00:35:49.316Z,100545.63
2022-09-25T00:38:33.728Z,100541.13
2022-09-25T00:41:19.004Z,100542.56
2022-09-25T00:44:05.360Z,100538.13
2022-09-25T00:46:49.259Z,100529.41
2022-09-25T00:49:34.408Z,100525.84
2022-09-25T00:52:18.349Z,100509.56
2022-09-25T00:55:06.766Z,100468.38
2022-09-25T00:57:54.334Z,100490.59
2022-09-25T01:00:38.067Z,100510.56
2022-09-25T01:03:22.684Z,100472.81
2022-09-25T01:06:10.459Z,100501.53
2022-09-25T01:08:55.634Z,100503.94
2022-09-25T01:11:39.325Z,100507.53
2022-09-25T01:14:24.239Z,100516.06
2022-09-25T01:17:14.783Z,100509.91
2022-09-25T01:20:10.480Z,100507.63
2022-09-25T01:23:15.122Z,100484.91
2022-09-25T01:26:15.884Z,100497.38
2022-09-25T01:29:12.593Z,100490.84
2022-09-25T01:32:03.275Z,100468.69
2022-09-25T01:34:55.609Z,100439.31
2022-09-25T01:37:44.073Z,100481.91
2022-09-25T01:40:33.536Z,100487.44
2022-09-25T01:43:21.373Z,100492.13
2022-09-25T01:46:14.174Z,100493.59
2022-09-25T01:49:03.756Z,100496.94
2022-09-25T01:51:52.505Z,100486.66
2022-09-25T01:54:41.720Z,100497.97
2022-09-25T01:57:29.288Z,100481.63
2022-09-25T02:00:16.534Z,100481.34
2022-09-25T02:03:11.386Z,100464.53
2022-09-25T02:05:58.384Z,100455.03
2022-09-25T02:08:47.509Z,100480.44
2022-09-25T02:11:34.055Z,100487.28
2022-09-25T02:14:23.386Z,100438.81
2022-09-25T02:17:10.846Z,100475.75
2022-09-25T02:20:13.236Z,100480.69
2022-09-25T02:23:04.223Z,100438.31
2022-09-25T02:25:56.550Z,100478.13
2022-09-25T02:28:40.236Z,100454.72
2022-09-25T02:31:29.800Z,100474.28
2022-09-25T02:34:15.383Z,100462.31
2022-09-25T02:37:00.829Z,100455.22
2022-09-25T02:39:48.040Z,100470.75
2022-09-25T02:42:43.500Z,100482.03
2022-09-25T02:45:39.648Z,100476.84
2022-09-25T02:48:31.609Z,100476.34
2022-09-25T02:51:22.482Z,100484.56
2022-09-25T02:54:14.120Z,100497.78
2022-09-25T02:57:04.582Z,100495.16
2022-09-25T02:59:54.893Z,100498.47
2022-09-25T03:02:40.549Z,100493.06
2022-09-25T03:05:26.241Z,100489.56
2022-09-25T03:08:28.587Z,100495.69
2022-09-25T03:11:16.056Z,100504.56
2022-09-25T03:14:01.509Z,100488.44
2022-09-25T03:16:48.984Z,100503.38
2022-09-25T03:19:32.959Z,100464.53
2022-09-25T03:22:16.711Z,100507.53
2022-09-25T03:25:00.632Z,100500.56
2022-09-25T03:27:48.104Z,100497.00
2022-09-25T03:30:32.057Z,100501.50
2022-09-25T03:33:16.871Z,100501.19
2022-09-25T03:36:07.510Z,100485.31
2022-09-25T03:38:52.846Z,100489.84
2022-09-25T03:41:36.711Z,100488.00
2022-09-25T03:44:21.812Z,100485.44
2022-09-25T03:47:05.656Z,100490.41
2022-09-25T03:49:49.422Z,100484.25
2022-09-25T03:52:33.213Z,100481.69
2022-09-25T03:55:17.324Z,100484.50
2022-09-25T03:58:01.175Z,100486.66
2022-09-25T04:00:47.571Z,100491.59
2022-09-25T04:03:32.867Z,100503.75
2022-09-25T04:06:20.366Z,100503.03
2022-09-25T04:09:04.120Z,100495.41
2022-09-25T04:11:47.913Z,100488.34
2022-09-25T04:14:32.125Z,100504.53
2022-09-25T04:17:17.220Z,100516.06
2022-09-25T04:20:01.120Z,100517.19
2022-09-25T04:22:44.923Z,100501.59
2022-09-25T04:25:28.781Z,100520.25
2022-09-25T04:28:12.580Z,100524.53
2022-09-25T04:30:56.259Z,100516.72
2022-09-25T04:33:49.244Z,100532.16
2022-09-25T04:36:33.271Z,100499.72
2022-09-25T04:39:20.290Z,100498.72
2022-09-25T04:42:04.389Z,100531.84
2022-09-25T04:44:48.330Z,100530.84
2022-09-25T04:47:32.269Z,100522.94
2022-09-25T04:50:17.851Z,100488.88
2022-09-25T04:53:02.391Z,100525.50
2022-09-25T04:55:48.224Z,100528.13
2022-09-25T04:58:32.498Z,100529.25
2022-09-25T05:01:17.972Z,100519.50
2022-09-25T05:04:07.694Z,100529.75
2022-09-25T05:06:54.320Z,100504.69
2022-09-25T05:09:38.298Z,100496.88
2022-09-25T05:12:22.161Z,100499.00
2022-09-25T05:15:07.008Z,100498.22
2022-09-25T05:17:52.637Z,100497.88
2022-09-25T05:20:37.563Z,100488.09
2022-09-25T05:23:24.073Z,100479.47
2022-09-25T05:26:08.167Z,100520.38
2022-09-25T05:28:52.311Z,100493.78
2022-09-25T05:31:36.987Z,100533.28
2022-09-25T05:34:21.224Z,100514.44
2022-09-25T05:37:05.265Z,100540.72
2022-09-25T05:39:50.705Z,100536.34
2022-09-25T05:42:35.157Z,100492.69
2022-09-25T05:45:21.174Z,100534.59
2022-09-25T05:48:07.260Z,100495.47
2022-09-25T05:50:53.500Z,100509.66
2022-09-25T05:53:38.349Z,100490.66
2022-09-25T05:56:25.056Z,100539.84
2022-09-25T05:59:09.563Z,100538.91
2022-09-25T06:01:53.619Z,100493.00
2022-09-25T06:04:37.801Z,100500.13
2022-09-25T06:07:21.876Z,100526.47
2022-09-25T06:10:06.460Z,100541.09
2022-09-25T06:12:52.982Z,100548.34
2022-09-25T06:15:38.808Z,100537.47
2022-09-25T06:18:24.453Z,100510.00
2022-09-25T06:21:08.430Z,100507.38
2022-09-25T06:23:53.090Z,100510.44
2022-09-25T06:26:37.050Z,100547.47
2022-09-25T06:29:22.579Z,100542.78
2022-09-25T06:32:06.557Z,100498.66
2022-09-25T06:34:50.425Z,100543.63
2022-09-25T06:37:34.339Z,100492.13
2022-09-25T06:40:18.445Z,100531.44
2022-09-25T06:43:03.905Z,100507.91
2022-09-25T06:45:50.234Z,100543.19
2022-09-25T06:48:34.309Z,100543.94
2022-09-25T06:51:18.800Z,100504.50
2022-09-25T06:54:03.196Z,100546.16
2022-09-25T06:56:50.601Z,100543.75
2022-09-25T06:59:34.602Z,100517.06
2022-09-25T07:02:37.399Z,100469.50
2022-09-25T07:05:21.361Z,100551.84
2022-09-25T07:08:05.604Z,100505.44
2022-09-25T07:10:50.632Z,100548.47
2022-09-25T07:13:36.999Z,100509.09
2022-09-25T07:16:22.342Z,100557.03
2022-09-25T07:19:07.989Z,100506.91
2022-09-25T07:21:52.352Z,100517.53
2022-09-25T07:24:36.565Z,100514.47
2022-09-25T07:27:20.526Z,100514.78
2022-09-25T07:30:05.408Z,100542.88
2022-09-25T07:32:49.784Z,100497.78
2022-09-25T07:35:35.520Z,100520.41
2022-09-25T07:38:19.985Z,100496.81
2022-09-25T07:41:06.926Z,100504.50
2022-09-25T07:44:06.256Z,100541.75
2022-09-25T07:46:58.394Z,100509.69
2022-09-25T07:49:42.817Z,100541.72
2022-09-25T07:52:28.481Z,100499.22
2022-09-25T07:55:12.467Z,100529.72
2022-09-25T07:57:58.827Z,100534.25
2022-09-25T08:00:42.882Z,100508.25
2022-09-25T08:03:27.125Z,100543.22
2022-09-25T08:06:13.698Z,100506.53
2022-09-25T08:09:00.393Z,100495.31
2022-09-25T08:11:44.544Z,100497.38
2022-09-25T08:14:29.302Z,100531.50
2022-09-25T08:17:13.601Z,100505.13
2022-09-25T08:19:57.905Z,100497.16
2022-09-25T08:22:42.135Z,100496.91
2022-09-25T08:25:27.683Z,100522.34
2022-09-25T08:28:11.760Z,100487.59
2022-09-25T08:30:56.301Z,100519.44
2022-09-25T08:33:40.632Z,100513.28
2022-09-25T08:36:24.572Z,100514.53
2022-09-25T08:39:08.736Z,100435.78
2022-09-25T08:41:55.936Z,100507.19
2022-09-25T08:44:57.246Z,100470.13
2022-09-25T08:48:06.822Z,100508.31
2022-09-25T08:50:53.590Z,100468.00
2022-09-25T08:53:39.153Z,100507.13
2022-09-25T08:56:24.963Z,100504.63
2022-09-25T08:59:24.237Z,100480.91
2022-09-25T09:02:15.320Z,100498.50
2022-09-25T09:05:01.557Z,100493.00
2022-09-25T09:07:51.681Z,100489.09
2022-09-25T09:10:39.000Z,100484.53
2022-09-25T09:13:28.245Z,100479.91
2022-09-25T09:16:21.114Z,100449.84
2022-09-25T09:19:08.201Z,100478.59
2022-09-25T09:22:01.012Z,100475.03
2022-09-25T09:24:56.151Z,100477.56
2022-09-25T09:28:00.023Z,100474.19
2022-09-25T09:30:51.015Z,100483.13
2022-09-25T09:33:48.764Z,100466.69
2022-09-25T09:36:39.627Z,100465.75
2022-09-25T09:39:32.370Z,100459.78
2022-09-25T09:42:23.095Z,100458.63
2022-09-25T09:45:17.511Z,100459.84
2022-09-25T09:48:11.452Z,100451.63
2022-09-25T09:51:02.897Z,100446.22
2022-09-25T09:53:52.189Z,100444.56
2022-09-25T09:56:37.301Z,100444.34
2022-09-25T09:59:24.529Z,100438.81
2022-09-25T10:02:20.077Z,100427.66
2022-09-25T10:05:09.636Z,100411.88
2022-09-25T10:07:56.025Z,100421.06
2022-09-25T10:10:42.739Z,100425.81
2022-09-25T10:13:33.189Z,100416.47
2022-09-25T10:16:19.341Z,100412.97
2022-09-25T10:19:08.759Z,100398.94
2022-09-25T10:21:56.335Z,100409.69
2022-09-25T10:25:02.894Z,100399.31
2022-09-25T10:27:49.845Z,100390.97
2022-09-25T10:30:34.536Z,100368.97
2022-09-25T10:33:21.969Z,100393.00
2022-09-25T10:36:06.189Z,100394.34
2022-09-25T10:38:58.043Z,100365.28
2022-09-25T10:41:50.612Z,100399.19
2022-09-25T10:44:36.904Z,100378.38
2022-09-25T10:47:50.697Z,100380.34
2022-09-25T10:50:37.122Z,100370.34
2022-09-25T10:53:30.806Z,100372.69
2022-09-25T10:56:20.762Z,100369.56
2022-09-25T10:59:16.089Z,100357.66
2022-09-25T11:02:00.755Z,100360.03
2022-09-25T11:04:47.312Z,100364.13
2022-09-25T11:07:31.502Z,100348.94
2022-09-25T11:10:21.851Z,100352.34
2022-09-25T11:13:18.411Z,100351.28
2022-09-25T11:16:10.826Z,100350.81
2022-09-25T11:19:08.928Z,100338.50
2022-09-25T11:22:01.441Z,100340.50
2022-09-25T11:25:04.080Z,100324.50
2022-09-25T11:27:53.720Z,100341.28
2022-09-25T11:30:43.533Z,100315.28
2022-09-25T11:33:42.444Z,100339.66
2022-09-25T11:36:30.769Z,100344.78
2022-09-25T11:39:39.491Z,100345.22
2022-09-25T11:42:32.959Z,100338.84
2022-09-25T11:45:22.174Z,100312.09
2022-09-25T11:48:14.551Z,100326.56
2022-09-25T11:51:15.266Z,100328.44
2022-09-25T11:54:31.882Z,100330.56
2022-09-25T11:57:14.553Z,100316.47
2022-09-25T12:00:09.125Z,100306.50
2022-09-25T12:03:10.686Z,100309.53
2022-09-25T12:06:21.900Z,100314.56
2022-09-25T12:09:28.693Z,100312.31
2022-09-25T12:12:21.914Z,100321.28
2022-09-25T12:15:17.770Z,100313.81
2022-09-25T12:18:08.729Z,100311.03
2022-09-25T12:21:00.071Z,100288.78
2022-09-25T12:23:51.943Z,100280.91
2022-09-25T12:26:47.691Z,100306.41
2022-09-25T12:29:55.473Z,100304.38
2022-09-25T12:33:04.179Z,100305.44
2022-09-25T12:35:53.144Z,100290.44
2022-09-25T12:38:44.260Z,100289.97
2022-09-25T12:41:40.916Z,100285.34
2022-09-25T12:44:42.463Z,100286.97
2022-09-25T12:47:36.496Z,100293.22
2022-09-25T12:50:23.773Z,100184.50
2022-09-25T12:53:27.400Z,100275.84
2022-09-25T12:56:14.971Z,100281.41
2022-09-25T12:59:12.356Z,100282.41
2022-09-25T13:02:03.657Z,100247.28
2022-09-25T13:05:04.719Z,100276.09
2022-09-25T13:07:53.351Z,100265.66
2022-09-25T13:10:40.783Z,100240.41
2022-09-25T13:13:28.485Z,100273.25
2022-09-25T13:16:18.798Z,100284.78
2022-09-25T13:19:23.653Z,100275.94
2022-09-25T13:22:10.492Z,100281.69
2022-09-25T13:25:16.636Z,100253.09
2022-09-25T13:28:08.817Z,100265.38
2022-09-25T13:31:09.697Z,100264.44
2022-09-25T13:34:03.506Z,100230.75
2022-09-25T13:36:50.038Z,100256.31
2022-09-25T13:39:54.156Z,100210.28
2022-09-25T13:42:40.691Z,100223.97
2022-09-25T13:45:34.657Z,100268.06
2022-09-25T13:48:38.082Z,100247.50
2022-09-25T13:51:37.008Z,100247.47
2022-09-25T13:54:28.493Z,100259.31
2022-09-25T13:57:13.353Z,100252.72
2022-09-25T14:00:06.270Z,100238.44
2022-09-25T14:02:51.365Z,100238.13
2022-09-25T14:05:38.082Z,100259.56
2022-09-25T14:08:24.024Z,100252.13
2022-09-25T14:11:12.319Z,100205.91
2022-09-25T14:13:57.469Z,100251.84
2022-09-25T14:16:48.241Z,100216.44
2022-09-25T14:19:36.270Z,100208.03
2022-09-25T14:22:26.806Z,100215.66
2022-09-25T14:25:27.746Z,100252.44
2022-09-25T14:28:27.215Z,100262.72
2022-09-25T14:31:24.781Z,100221.38
2022-09-25T14:34:34.209Z,100212.22
2022-09-25T14:37:37.970Z,100246.31
2022-09-25T14:40:33.885Z,100222.91
2022-09-25T14:43:45.402Z,100262.25
2022-09-25T14:46:30.026Z,100211.84
2022-09-25T14:49:27.088Z,100215.16
2022-09-25T14:52:15.088Z,100207.41
2022-09-25T14:55:01.665Z,100218.44
2022-09-25T14:57:51.450Z,100224.38
2022-09-25T15:00:36.830Z,100224.47
2022-09-25T15:03:26.955Z,100264.53
2022-09-25T15:06:15.981Z,100241.88
2022-09-25T15:09:02.927Z,100269.00
2022-09-25T15:11:47.161Z,100226.28
2022-09-25T15:14:32.885Z,100217.59
2022-09-25T15:17:23.732Z,100246.25
2022-09-25T15:20:14.729Z,100221.00
2022-09-25T15:23:02.389Z,100224.25
2022-09-25T15:25:49.968Z,100258.69
2022-09-25T15:28:40.454Z,100253.75
2022-09-25T15:31:26.849Z,100246.28
2022-09-25T15:34:14.074Z,100205.22
2022-09-25T15:37:16.494Z,100253.75
2022-09-25T15:40:13.157Z,100246.84
2022-09-25T15:42:58.092Z,100250.66
2022-09-25T15:45:46.515Z,100242.50
2022-09-25T15:48:33.536Z,100237.41
2022-09-25T15:51:21.107Z,100245.03
2022-09-25T15:54:26.180Z,100239.97
2022-09-25T15:57:14.006Z,100232.13
2022-09-25T16:00:31.562Z,100238.44
2022-09-25T16:03:39.067Z,100241.69
2022-09-25T16:06:24.573Z,100249.38
2022-09-25T16:09:21.445Z,100225.31
2022-09-25T16:12:22.508Z,100236.16
2022-09-25T16:15:42.702Z,100210.94
2022-09-25T16:18:39.723Z,100227.50
2022-09-25T16:21:30.183Z,100201.56
2022-09-25T16:24:20.863Z,100224.34
2022-09-25T16:27:06.090Z,100221.91
2022-09-25T16:29:50.289Z,100237.09
2022-09-25T16:32:34.449Z,100197.31
2022-09-25T16:35:25.844Z,100228.81
2022-09-25T16:38:27.680Z,100227.66
2022-09-25T16:41:22.501Z,100227.38
2022-09-25T16:44:15.516Z,100222.59
2022-09-25T16:47:14.480Z,100225.13
2022-09-25T16:49:58.776Z,100223.63
2022-09-25T16:52:43.564Z,100193.34
2022-09-25T16:55:30.569Z,100207.00
2022-09-25T16:58:14.915Z,100206.34
2022-09-25T17:01:05.430Z,100244.38
2022-09-25T17:03:52.910Z,100247.81
2022-09-25T17:06:42.750Z,100258.66
2022-09-25T17:09:28.968Z,100250.59
2022-09-25T17:12:21.315Z,100245.09
2022-09-25T17:15:08.873Z,100231.06
2022-09-25T17:17:55.603Z,100255.44
2022-09-25T17:20:39.627Z,100250.56
2022-09-25T17:23:26.034Z,100257.94
2022-09-25T17:26:20.905Z,100257.75
2022-09-25T17:29:06.566Z,100198.41
2022-09-25T17:31:51.286Z,100219.66
2022-09-25T17:34:35.398Z,100204.75
2022-09-25T17:37:22.034Z,100241.59
2022-09-25T17:40:06.606Z,100228.94
2022-09-25T17:42:51.039Z,100255.28
2022-09-25T17:45:39.434Z,100257.00
2022-09-25T17:48:25.147Z,100262.47
2022-09-25T17:51:17.330Z,100259.91
2022-09-25T17:54:06.180Z,100246.06
2022-09-25T17:56:50.700Z,100259.91
2022-09-25T17:59:34.643Z,100245.13
2022-09-25T18:02:21.410Z,100258.75
2022-09-25T18:05:06.208Z,100237.63
2022-09-25T18:07:52.463Z,100245.38
2022-09-25T18:10:37.209Z,100260.94
2022-09-25T18:13:21.939Z,100248.31
2022-09-25T18:16:07.701Z,100243.94
2022-09-25T18:19:10.495Z,100251.81
2022-09-25T18:22:15.424Z,100237.03
2022-09-25T18:25:00.784Z,100239.84
2022-09-25T18:27:45.525Z,100247.00
2022-09-25T18:30:30.406Z,100253.00
2022-09-25T18:33:15.433Z,100246.41
2022-09-25T18:36:00.912Z,100249.22
2022-09-25T18:38:45.001Z,100239.75
2022-09-25T18:41:38.380Z,100239.97
2022-09-25T18:44:23.895Z,100201.13
2022-09-25T18:47:10.823Z,100238.28
2022-09-25T18:49:59.183Z,100238.06
2022-09-25T18:52:48.670Z,100242.00
2022-09-25T18:55:35.777Z,100199.81
2022-09-25T18:58:24.239Z,100206.16
2022-09-25T19:01:10.645Z,100178.09
2022-09-25T19:03:55.024Z,100205.94
2022-09-25T19:06:43.920Z,100239.00
2022-09-25T19:09:29.502Z,100237.75
2022-09-25T19:12:17.437Z,100239.22
2022-09-25T19:15:04.147Z,100236.22
2022-09-25T19:17:48.707Z,100239.03
2022-09-25T19:20:35.328Z,100234.00
2022-09-25T19:23:21.306Z,100210.59
2022-09-25T19:26:08.555Z,100234.50
2022-09-25T19:28:52.627Z,100236.91
2022-09-25T19:31:36.696Z,100204.38
2022-09-25T19:34:23.671Z,100215.94
2022-09-25T19:37:08.730Z,100224.00
2022-09-25T19:40:10.884Z,100190.31
2022-09-25T19:42:58.222Z,100242.97
2022-09-25T19:45:42.156Z,100245.06
2022-09-25T19:48:28.220Z,100232.75
2022-09-25T19:51:15.457Z,100250.97
2022-09-25T19:53:59.662Z,100197.56
2022-09-25T19:56:44.083Z,100196.09
2022-09-25T19:59:31.867Z,100236.66
2022-09-25T20:02:16.029Z,100196.09
2022-09-25T20:05:00.391Z,100227.88
2022-09-25T20:07:44.319Z,100213.56
2022-09-25T20:10:30.787Z,100225.22
2022-09-25T20:13:17.304Z,100219.03
2022-09-25T20:16:10.699Z,100229.69
2022-09-25T20:18:57.943Z,100238.31
2022-09-25T20:21:41.998Z,100218.25
2022-09-25T20:24:26.030Z,100231.25
2022-09-25T20:27:09.991Z,100212.72
2022-09-25T20:29:54.387Z,100237.88
2022-09-25T20:32:45.362Z,100232.03
2022-09-25T20:35:31.654Z,100238.31
2022-09-25T20:38:15.579Z,100242.47
2022-09-25T20:41:00.801Z,100246.59
2022-09-25T20:43:44.962Z,100251.19
2022-09-25T20:46:30.219Z,100244.59
2022-09-25T20:49:20.223Z,100231.28
2022-09-25T20:52:04.824Z,100238.72
2022-09-25T20:54:48.688Z,100237.66
2022-09-25T20:57:34.258Z,100240.94
2022-09-25T21:00:19.647Z,100209.28
2022-09-25T21:03:04.632Z,100229.81
2022-09-25T21:05:50.082Z,100220.97
2022-09-25T21:08:34.511Z,100217.03
2022-09-25T21:11:18.621Z,100225.97
2022-09-25T21:14:04.084Z,100200.06
2022-09-25T21:16:49.340Z,100209.22
2022-09-25T21:19:33.395Z,100210.88
2022-09-25T21:22:19.985Z,100201.53
2022-09-25T21:25:04.069Z,100206.28
2022-09-25T21:27:48.358Z,100212.59
2022-09-25T21:30:32.891Z,100209.03
2022-09-25T21:33:17.295Z,100186.16
2022-09-25T21:36:02.105Z,100190.25
2022-09-25T21:38:47.584Z,100185.50
2022-09-25T21:41:32.053Z,100191.88
2022-09-25T21:44:17.856Z,100192.09
2022-09-25T21:47:02.150Z,100184.63
2022-09-25T21:49:46.037Z,100155.78
2022-09-25T21:52:29.910Z,100173.19
2022-09-25T21:55:15.335Z,100172.72
2022-09-25T21:57:59.612Z,100159.72
2022-09-25T22:00:43.585Z,100167.19
2022-09-25T22:03:27.504Z,100160.75
2022-09-25T22:06:14.402Z,100116.88
2022-09-25T22:09:00.802Z,100120.97
2022-09-25T22:11:46.801Z,100158.59
2022-09-25T22:14:30.518Z,100146.03
2022-09-25T22:17:14.410Z,100156.97
2022-09-25T22:20:01.647Z,100147.16
2022-09-25T22:22:49.358Z,100152.59
2022-09-25T22:25:35.052Z,100112.69
2022-09-25T22:28:20.934Z,100156.31
2022-09-25T22:31:06.444Z,100147.81
2022-09-25T22:33:54.266Z,100149.06
2022-09-25T22:36:37.996Z,100133.97
2022-09-25T22:39:21.991Z,100141.91
2022-09-25T22:42:05.872Z,100141.13
2022-09-25T22:44:51.028Z,100141.63
2022-09-25T22:47:34.701Z,100128.66
2022-09-25T22:50:18.660Z,100131.22
2022-09-25T22:53:02.436Z,100126.94
2022-09-25T22:55:47.795Z,100134.81
2022-09-25T22:58:31.714Z,100089.41
2022-09-25T23:01:19.924Z,100122.28
2022-09-25T23:04:05.454Z,100117.91
2022-09-25T23:06:50.249Z,100126.50
2022-09-25T23:09:34.191Z,100129.28
2022-09-25T23:12:18.176Z,100128.00
2022-09-25T23:15:02.238Z,100090.25
2022-09-25T23:17:48.549Z,100105.22
2022-09-25T23:20:32.574Z,100090.75
2022-09-25T23:23:16.685Z,100090.13
2022-09-25T23:26:03.591Z,100120.09
2022-09-25T23:28:47.377Z,100109.06
2022-09-25T23:31:32.871Z,100078.69
2022-09-25T23:34:18.481Z,100108.16
2022-09-25T23:37:02.231Z,100101.56
2022-09-25T23:39:45.989Z,100093.56
2022-09-25T23:42:29.792Z,100092.06
2022-09-25T23:45:14.320Z,100085.91
2022-09-25T23:47:58.344Z,100080.81
2022-09-25T23:50:44.064Z,100053.25
2022-09-25T23:53:27.794Z,100080.03
2022-09-25T23:56:13.589Z,100076.75
2022-09-25T23:58:58.974Z,100062.09
